sensor_id;sensor_type;location;lat;lon;timestamp;pressure;altitude;pressure_sealevel;temperature;humidity
66560;BME280;53413;49.878;8.142;2023-02-19T00:01:43;100363.44;;;9.22;100.00
66560;BME280;53413;49.878;8.142;2023-02-19T00:04:15;100370.31;;;9.24;100.00
66560;BME280;53413;49.878;8.142;2023-02-19T00:06:42;100369.31;;;9.30;100.00
66560;BME280;53413;49.878;8.142;2023-02-19T00:09:10;100360.50;;;9.33;100.00
66560;BME280;53413;49.878;8.142;2023-02-19T00:11:36;100368.25;;;9.37;100.00
66560;BME280;53413;49.878;8.142;2023-02-19T00:14:02;100359.47;;;9.38;100.00
66560;BME280;53413;49.878;8.142;2023-02-19T00:16:34;100350.84;;;9.36;100.00
66560;BME280;53413;49.878;8.142;2023-02-19T00:19:02;100336.97;;;9.33;100.00
66560;BME280;53413;49.878;8.142;2023-02-19T00:21:28;100341.44;;;9.29;100.00
66560;BME280;53413;49.878;8.142;2023-02-19T00:23:56;100353.78;;;9.24;100.00
66560;BME280;53413;49.878;8.142;2023-02-19T00:26:21;100360.84;;;9.20;100.00
66560;BME280;53413;49.878;8.142;2023-02-19T00:28:48;100350.44;;;9.19;100.00
66560;BME280;53413;49.878;8.142;2023-02-19T00:33:41;100361.66;;;9.22;100.00
66560;BME280;53413;49.878;8.142;2023-02-19T00:36:07;100363.34;;;9.25;100.00
66560;BME280;53413;49.878;8.142;2023-02-19T00:38:35;100359.78;;;9.28;100.00
66560;BME280;53413;49.878;8.142;2023-02-19T00:41:01;100366.66;;;9.32;100.00
66560;BME280;53413;49.878;8.142;2023-02-19T00:43:59;100366.53;;;9.36;100.00
66560;BME280;53413;49.878;8.142;2023-02-19T00:46:25;100371.72;;;9.38;100.00
66560;BME280;53413;49.878;8.142;2023-02-19T00:48:51;100369.91;;;9.40;100.00
66560;BME280;53413;49.878;8.142;2023-02-19T00:51:17;100346.31;;;9.43;100.00
66560;BME280;53413;49.878;8.142;2023-02-19T00:53:43;100314.09;;;9.41;100.00
66560;BME280;53413;49.878;8.142;2023-02-19T00:56:08;100324.72;;;9.35;100.00
66560;BME280;53413;49.878;8.142;2023-02-19T00:58:34;100342.47;;;9.23;100.00
66560;BME280;53413;49.878;8.142;2023-02-19T01:00:59;100338.44;;;9.12;100.00
66560;BME280;53413;49.878;8.142;2023-02-19T01:03:25;100353.56;;;8.99;100.00
66560;BME280;53413;49.878;8.142;2023-02-19T01:05:51;100348.44;;;8.96;100.00
66560;BME280;53413;49.878;8.142;2023-02-19T01:08:17;100344.25;;;8.90;100.00
66560;BME280;53413;49.878;8.142;2023-02-19T01:10:43;100351.25;;;8.88;100.00
66560;BME280;53413;49.878;8.142;2023-02-19T01:13:08;100353.03;;;8.86;100.00
66560;BME280;53413;49.878;8.142;2023-02-19T01:15:34;100349.59;;;8.84;100.00
66560;BME280;53413;49.878;8.142;2023-02-19T01:17:59;100345.19;;;8.86;100.00
66560;BME280;53413;49.878;8.142;2023-02-19T01:20:25;100354.78;;;8.85;100.00
66560;BME280;53413;49.878;8.142;2023-02-19T01:22:50;100331.25;;;8.85;100.00
66560;BME280;53413;49.878;8.142;2023-02-19T01:25:16;100334.69;;;8.87;100.00
66560;BME280;53413;49.878;8.142;2023-02-19T01:27:41;100338.13;;;8.89;100.00
66560;BME280;53413;49.878;8.142;2023-02-19T01:30:07;100333.81;;;8.88;100.00
66560;BME280;53413;49.878;8.142;2023-02-19T01:32:33;100332.97;;;8.88;100.00
66560;BME280;53413;49.878;8.142;2023-02-19T01:34:58;100319.91;;;8.88;100.00
66560;BME280;53413;49.878;8.142;2023-02-19T01:37:23;100313.84;;;8.86;100.00
66560;BME280;53413;49.878;8.142;2023-02-19T01:39:49;100314.69;;;8.86;100.00
66560;BME280;53413;49.878;8.142;2023-02-19T01:42:14;100315.63;;;8.84;100.00
66560;BME280;53413;49.878;8.142;2023-02-19T01:47:09;100331.56;;;8.73;100.00
66560;BME280;53413;49.878;8.142;2023-02-19T01:49:45;100335.97;;;8.72;100.00
66560;BME280;53413;49.878;8.142;2023-02-19T01:52:20;100324.56;;;8.75;100.00
66560;BME280;53413;49.878;8.142;2023-02-19T01:54:48;100315.88;;;8.74;100.00
66560;BME280;53413;49.878;8.142;2023-02-19T01:57:23;100325.56;;;8.71;100.00
66560;BME280;53413;49.878;8.142;2023-02-19T01:59:56;100324.66;;;8.72;100.00
66560;BME280;53413;49.878;8.142;2023-02-19T02:02:23;100324.56;;;8.75;100.00
66560;BME280;53413;49.878;8.142;2023-02-19T02:04:51;100314.13;;;8.75;100.00
66560;BME280;53413;49.878;8.142;2023-02-19T02:07:17;100312.41;;;8.74;100.00
66560;BME280;53413;49.878;8.142;2023-02-19T02:10:01;100308.06;;;8.73;100.00
66560;BME280;53413;49.878;8.142;2023-02-19T02:12:46;100309.84;;;8.72;100.00
66560;BME280;53413;49.878;8.142;2023-02-19T02:15:12;100305.38;;;8.76;100.00
66560;BME280;53413;49.878;8.142;2023-02-19T02:17:50;100306.28;;;8.75;100.00
66560;BME280;53413;49.878;8.142;2023-02-19T02:28:40;100316.84;;;9.03;100.00
66560;BME280;53413;49.878;8.142;2023-02-19T02:31:15;100303.69;;;9.06;100.00
66560;BME280;53413;49.878;8.142;2023-02-19T02:36:23;100315.53;;;9.20;100.00
66560;BME280;53413;49.878;8.142;2023-02-19T02:38:51;100317.06;;;9.27;100.00
66560;BME280;53413;49.878;8.142;2023-02-19T02:41:19;100314.34;;;9.32;100.00
66560;BME280;53413;49.878;8.142;2023-02-19T02:43:44;100296.84;;;9.34;100.00
66560;BME280;53413;49.878;8.142;2023-02-19T02:46:11;100289.88;;;9.34;100.00
66560;BME280;53413;49.878;8.142;2023-02-19T02:48:56;100294.19;;;9.35;100.00
66560;BME280;53413;49.878;8.142;2023-02-19T02:51:28;100287.19;;;9.36;100.00
66560;BME280;53413;49.878;8.142;2023-02-19T02:54:08;100287.13;;;9.39;100.00
66560;BME280;53413;49.878;8.142;2023-02-19T02:56:54;100281.00;;;9.40;100.00
66560;BME280;53413;49.878;8.142;2023-02-19T02:59:23;100272.41;;;9.35;100.00
66560;BME280;53413;49.878;8.142;2023-02-19T03:02:02;100266.34;;;9.34;100.00
66560;BME280;53413;49.878;8.142;2023-02-19T03:04:59;100271.66;;;9.31;100.00
66560;BME280;53413;49.878;8.142;2023-02-19T03:07:53;100267.38;;;9.29;100.00
66560;BME280;53413;49.878;8.142;2023-02-19T03:10:24;100269.22;;;9.25;100.00
66560;BME280;53413;49.878;8.142;2023-02-19T03:12:52;100266.75;;;9.19;100.00
66560;BME280;53413;49.878;8.142;2023-02-19T03:15:42;100266.75;;;9.19;100.00
66560;BME280;53413;49.878;8.142;2023-02-19T03:18:28;100260.69;;;9.18;100.00
66560;BME280;53413;49.878;8.142;2023-02-19T03:21:15;100257.34;;;9.13;100.00
66560;BME280;53413;49.878;8.142;2023-02-19T03:23:44;100280.22;;;9.05;100.00
66560;BME280;53413;49.878;8.142;2023-02-19T03:26:31;100279.41;;;9.03;100.00
66560;BME280;53413;49.878;8.142;2023-02-19T03:28:57;100288.09;;;9.03;100.00
66560;BME280;53413;49.878;8.142;2023-02-19T03:31:44;100286.22;;;9.08;100.00
66560;BME280;53413;49.878;8.142;2023-02-19T03:34:16;100283.47;;;9.13;100.00
66560;BME280;53413;49.878;8.142;2023-02-19T03:36:51;100283.41;;;9.16;100.00
66560;BME280;53413;49.878;8.142;2023-02-19T03:39:20;100286.03;;;9.16;100.00
66560;BME280;53413;49.878;8.142;2023-02-19T03:42:04;100287.63;;;9.20;100.00
66560;BME280;53413;49.878;8.142;2023-02-19T03:47:29;100284.94;;;9.23;100.00
66560;BME280;53413;49.878;8.142;2023-02-19T03:50:13;100289.19;;;9.28;100.00
66560;BME280;53413;49.878;8.142;2023-02-19T03:58:21;100290.78;;;9.33;100.00
66560;BME280;53413;49.878;8.142;2023-02-19T04:00:59;100295.03;;;9.36;100.00
66560;BME280;53413;49.878;8.142;2023-02-19T04:03:34;100297.53;;;9.40;100.00
66560;BME280;53413;49.878;8.142;2023-02-19T04:06:06;100307.84;;;9.45;100.00
66560;BME280;53413;49.878;8.142;2023-02-19T04:08:34;100299.06;;;9.48;100.00
66560;BME280;53413;49.878;8.142;2023-02-19T04:11:02;100305.16;;;9.48;100.00
66560;BME280;53413;49.878;8.142;2023-02-19T04:13:38;100306.81;;;9.51;100.00
66560;BME280;53413;49.878;8.142;2023-02-19T04:16:09;100299.84;;;9.51;100.00
66560;BME280;53413;49.878;8.142;2023-02-19T04:18:40;100296.34;;;9.51;100.00
66560;BME280;53413;49.878;8.142;2023-02-19T04:21:05;100293.84;;;9.48;100.00
66560;BME280;53413;49.878;8.142;2023-02-19T04:23:39;100296.50;;;9.46;100.00
66560;BME280;53413;49.878;8.142;2023-02-19T04:26:07;100293.19;;;9.39;100.00
66560;BME280;53413;49.878;8.142;2023-02-19T04:28:33;100301.09;;;9.38;100.00
66560;BME280;53413;49.878;8.142;2023-02-19T04:31:00;100300.28;;;9.36;100.00
66560;BME280;53413;49.878;8.142;2023-02-19T04:33:25;100304.59;;;9.37;100.00
66560;BME280;53413;49.878;8.142;2023-02-19T04:35:50;100305.50;;;9.36;100.00
66560;BME280;53413;49.878;8.142;2023-02-19T04:38:15;100314.25;;;9.35;100.00
66560;BME280;53413;49.878;8.142;2023-02-19T04:40:41;100307.31;;;9.34;100.00
66560;BME280;53413;49.878;8.142;2023-02-19T04:43:06;100312.59;;;9.32;100.00
66560;BME280;53413;49.878;8.142;2023-02-19T04:45:32;100309.97;;;9.32;100.00
66560;BME280;53413;49.878;8.142;2023-02-19T04:47:57;100311.69;;;9.33;100.00
66560;BME280;53413;49.878;8.142;2023-02-19T04:50:23;100324.81;;;9.32;100.00
66560;BME280;53413;49.878;8.142;2023-02-19T04:52:49;100328.41;;;9.28;100.00
66560;BME280;53413;49.878;8.142;2023-02-19T04:55:14;100332.00;;;9.23;100.00
66560;BME280;53413;49.878;8.142;2023-02-19T04:57:39;100330.22;;;9.26;100.00
66560;BME280;53413;49.878;8.142;2023-02-19T05:00:05;100330.97;;;9.29;100.00
66560;BME280;53413;49.878;8.142;2023-02-19T05:02:32;100328.34;;;9.31;100.00
66560;BME280;53413;49.878;8.142;2023-02-19T05:04:57;100330.84;;;9.34;100.00
66560;BME280;53413;49.878;8.142;2023-02-19T05:07:23;100331.66;;;9.36;100.00
66560;BME280;53413;49.878;8.142;2023-02-19T05:09:48;100333.31;;;9.38;100.00
66560;BME280;53413;49.878;8.142;2023-02-19T05:12:13;100333.38;;;9.37;100.00
66560;BME280;53413;49.878;8.142;2023-02-19T05:14:39;100328.22;;;9.34;100.00
66560;BME280;53413;49.878;8.142;2023-02-19T05:17:04;100328.34;;;9.31;100.00
66560;BME280;53413;49.878;8.142;2023-02-19T05:19:29;100324.06;;;9.27;100.00
66560;BME280;53413;49.878;8.142;2023-02-19T05:21:54;100310.38;;;9.18;100.00
66560;BME280;53413;49.878;8.142;2023-02-19T05:24:20;100319.97;;;9.18;100.00
66560;BME280;53413;49.878;8.142;2023-02-19T05:26:45;100326.94;;;9.17;100.00
66560;BME280;53413;49.878;8.142;2023-02-19T05:29:12;100333.16;;;9.13;100.00
66560;BME280;53413;49.878;8.142;2023-02-19T05:31:37;100342.84;;;9.09;100.00
66560;BME280;53413;49.878;8.142;2023-02-19T05:34:02;100335.97;;;9.05;100.00
66560;BME280;53413;49.878;8.142;2023-02-19T05:36:28;100343.88;;;9.04;100.00
66560;BME280;53413;49.878;8.142;2023-02-19T05:38:55;100345.72;;;8.99;100.00
66560;BME280;53413;49.878;8.142;2023-02-19T05:41:26;100350.06;;;9.00;100.00
66560;BME280;53413;49.878;8.142;2023-02-19T05:43:52;100356.16;;;9.00;100.00
66560;BME280;53413;49.878;8.142;2023-02-19T05:46:20;100355.22;;;9.03;100.00
66560;BME280;53413;49.878;8.142;2023-02-19T05:48:46;100355.22;;;9.03;100.00
66560;BME280;53413;49.878;8.142;2023-02-19T05:51:14;100353.56;;;8.99;100.00
66560;BME280;53413;49.878;8.142;2023-02-19T05:53:41;100346.72;;;8.95;100.00
66560;BME280;53413;49.878;8.142;2023-02-19T05:58:45;100371.16;;;8.92;100.00
66560;BME280;53413;49.878;8.142;2023-02-19T06:01:16;100375.56;;;8.91;100.00
66560;BME280;53413;49.878;8.142;2023-02-19T06:03:41;100374.72;;;8.89;100.00
66560;BME280;53413;49.878;8.142;2023-02-19T06:06:07;100386.97;;;8.87;100.00
66560;BME280;53413;49.878;8.142;2023-02-19T06:08:32;100392.13;;;8.90;100.00
66560;BME280;53413;49.878;8.142;2023-02-19T06:10:57;100386.00;;;8.91;100.00
66560;BME280;53413;49.878;8.142;2023-02-19T06:13:23;100382.50;;;8.92;100.00
66560;BME280;53413;49.878;8.142;2023-02-19T06:15:48;100391.22;;;8.91;100.00
66560;BME280;53413;49.878;8.142;2023-02-19T06:18:13;100392.13;;;8.90;100.00
66560;BME280;53413;49.878;8.142;2023-02-19T06:20:39;100394.75;;;8.90;100.00
66560;BME280;53413;49.878;8.142;2023-02-19T06:23:04;100409.53;;;8.91;100.00
66560;BME280;53413;49.878;8.142;2023-02-19T06:25:29;100407.75;;;8.93;100.00
66560;BME280;53413;49.878;8.142;2023-02-19T06:27:55;100414.59;;;8.98;100.00
66560;BME280;53413;49.878;8.142;2023-02-19T06:30:20;100416.25;;;9.02;100.00
66560;BME280;53413;49.878;8.142;2023-02-19T06:32:45;100409.28;;;9.01;100.00
66560;BME280;53413;49.878;8.142;2023-02-19T06:35:11;100402.50;;;8.93;100.00
66560;BME280;53413;49.878;8.142;2023-02-19T06:37:36;100402.66;;;8.87;100.00
66560;BME280;53413;49.878;8.142;2023-02-19T06:40:01;100409.19;;;8.69;100.00
66560;BME280;53413;49.878;8.142;2023-02-19T06:42:30;100419.16;;;8.53;100.00
66560;BME280;53413;49.878;8.142;2023-02-19T06:44:55;100425.31;;;8.51;100.00
66560;BME280;53413;49.878;8.142;2023-02-19T06:47:21;100423.41;;;8.57;100.00
66560;BME280;53413;49.878;8.142;2023-02-19T06:49:46;100412.03;;;8.60;100.00
66560;BME280;53413;49.878;8.142;2023-02-19T06:52:11;100418.97;;;8.61;100.00
66560;BME280;53413;49.878;8.142;2023-02-19T06:54:37;100427.69;;;8.60;100.00
66560;BME280;53413;49.878;8.142;2023-02-19T06:57:02;100438.25;;;8.55;100.00
66560;BME280;53413;49.878;8.142;2023-02-19T06:59:27;100445.31;;;8.50;100.00
66560;BME280;53413;49.878;8.142;2023-02-19T07:01:53;100453.94;;;8.55;100.00
66560;BME280;53413;49.878;8.142;2023-02-19T07:04:18;100464.03;;;8.71;100.00
66560;BME280;53413;49.878;8.142;2023-02-19T07:06:43;100464.47;;;8.88;100.00
66560;BME280;53413;49.878;8.142;2023-02-19T07:09:09;100459.81;;;9.01;100.00
66560;BME280;53413;49.878;8.142;2023-02-19T07:11:37;100470.06;;;9.09;100.00
66560;BME280;53413;49.878;8.142;2023-02-19T07:14:05;100478.56;;;9.19;100.00
66560;BME280;53413;49.878;8.142;2023-02-19T07:16:35;100479.13;;;9.30;100.00
66560;BME280;53413;49.878;8.142;2023-02-19T07:19:01;100476.28;;;9.39;100.00
66560;BME280;53413;49.878;8.142;2023-02-19T07:21:28;100479.78;;;9.40;100.00
66560;BME280;53413;49.878;8.142;2023-02-19T07:23:53;100481.38;;;9.44;100.00
66560;BME280;53413;49.878;8.142;2023-02-19T07:26:20;100481.25;;;9.50;100.00
66560;BME280;53413;49.878;8.142;2023-02-19T07:28:47;100471.34;;;9.62;100.00
66560;BME280;53413;49.878;8.142;2023-02-19T07:31:14;100471.03;;;9.74;100.00
66560;BME280;53413;49.878;8.142;2023-02-19T07:33:42;100470.75;;;9.83;100.00
66560;BME280;53413;49.878;8.142;2023-02-19T07:36:08;100479.22;;;9.93;100.00
66560;BME280;53413;49.878;8.142;2023-02-19T07:38:33;100481.63;;;10.01;100.00
66560;BME280;53413;49.878;8.142;2023-02-19T07:41:01;100484.03;;;10.09;100.00
66560;BME280;53413;49.878;8.142;2023-02-19T07:43:30;100490.38;;;10.31;100.00
66560;BME280;53413;49.878;8.142;2023-02-19T07:45:55;100497.00;;;10.73;100.00
66560;BME280;53413;49.878;8.142;2023-02-19T07:48:21;100509.72;;;11.13;100.00
66560;BME280;53413;49.878;8.142;2023-02-19T07:50:54;100504.44;;;11.41;100.00
66560;BME280;53413;49.878;8.142;2023-02-19T07:53:21;100513.97;;;11.44;100.00
66560;BME280;53413;49.878;8.142;2023-02-19T07:55:46;100516.88;;;11.61;100.00
66560;BME280;53413;49.878;8.142;2023-02-19T07:58:12;100519.44;;;11.88;100.00
66560;BME280;53413;49.878;8.142;2023-02-19T08:00:37;100515.53;;;13.79;100.00
66560;BME280;53413;49.878;8.142;2023-02-19T08:03:03;100505.91;;;13.99;100.00
66560;BME280;53413;49.878;8.142;2023-02-19T08:05:30;100521.22;;;13.70;100.00
66560;BME280;53413;49.878;8.142;2023-02-19T08:07:57;100523.38;;;13.60;100.00
66560;BME280;53413;49.878;8.142;2023-02-19T08:10:23;100521.34;;;13.88;100.00
66560;BME280;53413;49.878;8.142;2023-02-19T08:13:14;100528.25;;;13.90;100.00
66560;BME280;53413;49.878;8.142;2023-02-19T08:16:07;100528.13;;;13.73;100.00
66560;BME280;53413;49.878;8.142;2023-02-19T08:18:34;100540.34;;;13.31;100.00
66560;BME280;53413;49.878;8.142;2023-02-19T08:21:00;100541.00;;;12.93;100.00
66560;BME280;53413;49.878;8.142;2023-02-19T08:23:26;100541.56;;;12.55;100.00
66560;BME280;53413;49.878;8.142;2023-02-19T08:25:52;100540.94;;;12.25;100.00
66560;BME280;53413;49.878;8.142;2023-02-19T08:28:20;100551.09;;;12.10;100.00
66560;BME280;53413;49.878;8.142;2023-02-19T08:30:46;100558.34;;;12.04;100.00
66560;BME280;53413;49.878;8.142;2023-02-19T08:33:14;100567.34;;;11.95;100.00
66560;BME280;53413;49.878;8.142;2023-02-19T08:35:40;100577.28;;;11.86;100.00
66560;BME280;53413;49.878;8.142;2023-02-19T08:38:08;100573.91;;;11.83;100.00
66560;BME280;53413;49.878;8.142;2023-02-19T08:40:35;100574.50;;;11.91;100.00
66560;BME280;53413;49.878;8.142;2023-02-19T08:43:07;100577.41;;;12.09;100.00
66560;BME280;53413;49.878;8.142;2023-02-19T08:45:33;100583.91;;;12.24;100.00
66560;BME280;53413;49.878;8.142;2023-02-19T08:48:00;100585.69;;;12.47;100.00
66560;BME280;53413;49.878;8.142;2023-02-19T08:50:27;100588.75;;;12.58;100.00
66560;BME280;53413;49.878;8.142;2023-02-19T08:52:52;100603.59;;;12.61;100.00
66560;BME280;53413;49.878;8.142;2023-02-19T08:55:18;100612.38;;;12.60;100.00
66560;BME280;53413;49.878;8.142;2023-02-19T08:57:43;100626.44;;;12.59;100.00
66560;BME280;53413;49.878;8.142;2023-02-19T09:00:10;100622.72;;;12.65;100.00
66560;BME280;53413;49.878;8.142;2023-02-19T09:02:35;100621.06;;;12.86;100.00
66560;BME280;53413;49.878;8.142;2023-02-19T09:05:01;100623.38;;;12.93;100.00
66560;BME280;53413;49.878;8.142;2023-02-19T09:07:26;100621.22;;;13.05;100.00
66560;BME280;53413;49.878;8.142;2023-02-19T09:09:52;100620.38;;;13.27;100.00
66560;BME280;53413;49.878;8.142;2023-02-19T09:12:18;100619.00;;;13.40;100.00
66560;BME280;53413;49.878;8.142;2023-02-19T09:14:43;100624.53;;;13.54;100.00
66560;BME280;53413;49.878;8.142;2023-02-19T09:17:08;100623.63;;;13.55;100.00
66560;BME280;53413;49.878;8.142;2023-02-19T09:19:34;100619.97;;;13.60;100.00
66560;BME280;53413;49.878;8.142;2023-02-19T09:22:00;100622.88;;;13.74;100.00
66560;BME280;53413;49.878;8.142;2023-02-19T09:24:25;100617.91;;;13.89;100.00
66560;BME280;53413;49.878;8.142;2023-02-19T09:26:52;100619.97;;;13.80;100.00
66560;BME280;53413;49.878;8.142;2023-02-19T09:29:18;100621.97;;;13.75;100.00
66560;BME280;53413;49.878;8.142;2023-02-19T09:31:45;100620.06;;;13.79;100.00
66560;BME280;53413;49.878;8.142;2023-02-19T09:34:10;100622.66;;;13.58;100.00
66560;BME280;53413;49.878;8.142;2023-02-19T09:36:39;100630.22;;;13.66;100.00
66560;BME280;53413;49.878;8.142;2023-02-19T09:39:06;100627.75;;;13.83;100.00
66560;BME280;53413;49.878;8.142;2023-02-19T09:41:42;100628.78;;;14.41;99.26
66560;BME280;53413;49.878;8.142;2023-02-19T09:44:12;100630.41;;;15.22;96.44
66560;BME280;53413;49.878;8.142;2023-02-19T09:46:43;100628.75;;;15.21;93.01
66560;BME280;53413;49.878;8.142;2023-02-19T09:49:26;100634.72;;;15.24;92.99
66560;BME280;53413;49.878;8.142;2023-02-19T09:54:40;100632.50;;;16.57;84.18
66560;BME280;53413;49.878;8.142;2023-02-19T09:57:16;100628.84;;;16.26;83.49
66560;BME280;53413;49.878;8.142;2023-02-19T09:59:47;100627.03;;;15.74;83.80
66560;BME280;53413;49.878;8.142;2023-02-19T10:02:23;100630.88;;;15.13;84.18
66560;BME280;53413;49.878;8.142;2023-02-19T10:04:50;100639.66;;;14.54;85.37
66560;BME280;53413;49.878;8.142;2023-02-19T10:07:24;100642.66;;;14.05;88.05
66560;BME280;53413;49.878;8.142;2023-02-19T10:10:05;100634.88;;;13.81;89.74
66560;BME280;53413;49.878;8.142;2023-02-19T10:12:45;100641.63;;;13.66;91.10
66560;BME280;53413;49.878;8.142;2023-02-19T10:15:16;100647.09;;;13.62;92.18
66560;BME280;53413;49.878;8.142;2023-02-19T10:17:43;100653.66;;;13.51;92.91
66560;BME280;53413;49.878;8.142;2023-02-19T10:20:14;100645.94;;;13.47;93.02
66560;BME280;53413;49.878;8.142;2023-02-19T10:22:40;100652.16;;;13.44;93.23
66560;BME280;53413;49.878;8.142;2023-02-19T10:25:05;100659.88;;;13.49;94.34
66560;BME280;53413;49.878;8.142;2023-02-19T10:27:31;100667.84;;;13.47;93.76
66560;BME280;53413;49.878;8.142;2023-02-19T10:29:57;100659.41;;;13.37;93.59
66560;BME280;53413;49.878;8.142;2023-02-19T10:32:25;100670.59;;;13.44;95.32
66560;BME280;53413;49.878;8.142;2023-02-19T10:35:12;100664.84;;;13.57;93.86
66560;BME280;53413;49.878;8.142;2023-02-19T10:37:43;100660.41;;;13.79;93.54
66560;BME280;53413;49.878;8.142;2023-02-19T10:40:18;100676.03;;;13.84;92.14
66560;BME280;53413;49.878;8.142;2023-02-19T10:42:49;100682.78;;;13.91;91.87
66560;BME280;53413;49.878;8.142;2023-02-19T10:45:19;100688.56;;;14.20;91.36
66560;BME280;53413;49.878;8.142;2023-02-19T10:47:46;100694.50;;;14.46;90.81
66560;BME280;53413;49.878;8.142;2023-02-19T10:50:33;100702.75;;;14.38;86.83
66560;BME280;53413;49.878;8.142;2023-02-19T10:52:59;100708.41;;;14.29;86.74
66560;BME280;53413;49.878;8.142;2023-02-19T10:55:32;100711.59;;;14.37;86.69
66560;BME280;53413;49.878;8.142;2023-02-19T10:58:19;100717.13;;;14.31;85.75
66560;BME280;53413;49.878;8.142;2023-02-19T11:00:45;100733.22;;;14.25;85.15
66560;BME280;53413;49.878;8.142;2023-02-19T11:03:28;100730.69;;;14.01;85.92
66560;BME280;53413;49.878;8.142;2023-02-19T11:06:02;100734.44;;;13.73;90.03
66560;BME280;53413;49.878;8.142;2023-02-19T11:08:29;100732.22;;;13.38;91.94
66560;BME280;53413;49.878;8.142;2023-02-19T11:10:59;100724.41;;;13.13;94.40
66560;BME280;53413;49.878;8.142;2023-02-19T11:13:28;100738.22;;;12.94;99.90
66560;BME280;53413;49.878;8.142;2023-02-19T11:15:56;100738.66;;;12.82;100.00
66560;BME280;53413;49.878;8.142;2023-02-19T11:18:32;100744.38;;;12.93;100.00
66560;BME280;53413;49.878;8.142;2023-02-19T11:21:02;100733.25;;;12.87;100.00
66560;BME280;53413;49.878;8.142;2023-02-19T11:23:31;100718.88;;;12.72;100.00
66560;BME280;53413;49.878;8.142;2023-02-19T11:26:00;100718.44;;;12.84;100.00
66560;BME280;53413;49.878;8.142;2023-02-19T11:28:36;100721.97;;;13.07;100.00
66560;BME280;53413;49.878;8.142;2023-02-19T11:31:23;100725.84;;;13.90;100.00
66560;BME280;53413;49.878;8.142;2023-02-19T11:36:34;100715.81;;;15.40;91.59
66560;BME280;53413;49.878;8.142;2023-02-19T11:44:48;100714.84;;;16.34;82.14
66560;BME280;53413;49.878;8.142;2023-02-19T12:09:32;100749.03;;;14.25;82.66
66560;BME280;53413;49.878;8.142;2023-02-19T12:15:08;100738.63;;;13.77;84.28
66560;BME280;53413;49.878;8.142;2023-02-19T12:36:59;100720.41;;;15.36;81.67
66560;BME280;53413;49.878;8.142;2023-02-19T12:45:34;100730.09;;;14.98;79.78
66560;BME280;53413;49.878;8.142;2023-02-19T12:48:16;100726.63;;;14.76;80.38
66560;BME280;53413;49.878;8.142;2023-02-19T12:50:47;100726.97;;;14.69;82.39
66560;BME280;53413;49.878;8.142;2023-02-19T12:53:32;100725.84;;;14.74;82.37
66560;BME280;53413;49.878;8.142;2023-02-19T12:56:04;100731.63;;;14.62;79.85
66560;BME280;53413;49.878;8.142;2023-02-19T12:58:50;100719.31;;;14.42;79.98
66560;BME280;53413;49.878;8.142;2023-02-19T13:01:22;100716.53;;;14.24;80.11
66560;BME280;53413;49.878;8.142;2023-02-19T13:06:43;100719.25;;;14.23;81.38
66560;BME280;53413;49.878;8.142;2023-02-19T13:09:17;100706.97;;;14.22;83.86
66560;BME280;53413;49.878;8.142;2023-02-19T13:11:49;100706.06;;;14.23;83.74
66560;BME280;53413;49.878;8.142;2023-02-19T13:16:48;100710.94;;;14.11;83.20
66560;BME280;53413;49.878;8.142;2023-02-19T13:19:14;100698.19;;;14.00;82.67
66560;BME280;53413;49.878;8.142;2023-02-19T13:21:41;100695.03;;;13.92;83.82
66560;BME280;53413;49.878;8.142;2023-02-19T13:24:30;100692.69;;;13.84;86.14
66560;BME280;53413;49.878;8.142;2023-02-19T13:29:53;100697.06;;;14.06;89.71
66560;BME280;53413;49.878;8.142;2023-02-19T13:37:44;100701.34;;;15.11;81.71
66560;BME280;53413;49.878;8.142;2023-02-19T13:40:35;100708.31;;;14.92;80.44
66560;BME280;53413;49.878;8.142;2023-02-19T13:43:03;100702.34;;;14.89;81.13
66560;BME280;53413;49.878;8.142;2023-02-19T13:45:41;100707.44;;;14.73;82.07
66560;BME280;53413;49.878;8.142;2023-02-19T13:48:26;100712.00;;;14.69;81.24
66560;BME280;53413;49.878;8.142;2023-02-19T14:14:47;100746.91;;;13.68;81.68
66560;BME280;53413;49.878;8.142;2023-02-19T14:27:47;100740.09;;;13.40;85.41
66560;BME280;53413;49.878;8.142;2023-02-19T14:30:14;100743.28;;;13.48;84.85
66560;BME280;53413;49.878;8.142;2023-02-19T14:32:40;100736.00;;;13.55;85.65
66560;BME280;53413;49.878;8.142;2023-02-19T14:35:06;100741.47;;;13.50;85.40
66560;BME280;53413;49.878;8.142;2023-02-19T14:37:42;100742.41;;;13.48;84.74
66560;BME280;53413;49.878;8.142;2023-02-19T14:40:17;100744.19;;;13.47;84.99
66560;BME280;53413;49.878;8.142;2023-02-19T14:42:44;100746.09;;;13.44;84.14
66560;BME280;53413;49.878;8.142;2023-02-19T14:45:09;100749.41;;;13.49;84.16
66560;BME280;53413;49.878;8.142;2023-02-19T14:47:35;100743.78;;;13.58;83.67
66560;BME280;53413;49.878;8.142;2023-02-19T14:50:04;100754.81;;;13.68;84.54
66560;BME280;53413;49.878;8.142;2023-02-19T14:52:35;100761.97;;;13.64;84.27
66560;BME280;53413;49.878;8.142;2023-02-19T14:55:08;100764.09;;;13.54;83.93
66560;BME280;53413;49.878;8.142;2023-02-19T14:57:38;100769.94;;;13.39;84.55
66560;BME280;53413;49.878;8.142;2023-02-19T15:00:25;100783.72;;;13.22;86.20
66560;BME280;53413;49.878;8.142;2023-02-19T15:02:52;100783.53;;;13.03;86.09
66560;BME280;53413;49.878;8.142;2023-02-19T15:05:30;100782.59;;;12.80;89.12
66560;BME280;53413;49.878;8.142;2023-02-19T15:07:59;100791.25;;;12.57;90.12
66560;BME280;53413;49.878;8.142;2023-02-19T15:10:28;100803.25;;;12.39;92.10
66560;BME280;53413;49.878;8.142;2023-02-19T15:13:05;100802.94;;;12.21;98.86
66560;BME280;53413;49.878;8.142;2023-02-19T15:15:34;100797.06;;;12.13;100.00
66560;BME280;53413;49.878;8.142;2023-02-19T15:18:03;100807.59;;;12.13;100.00